Time;durP1;ratioP1;P1;durP2;ratioP2;P2;SDS_P1;SDS_P2;PMS_P1;PMS_P2;Temp;Humidity;BMP_temperature;BMP_pressure;BME280_temperature;BME280_humidity;BME280_pressure;Samples;Min_cycle;Max_cycle;Signal;HPM_P1;HPM_P2
2022/02/22 00:01:45;;;;;;;17.13;9.05;;;;;;;12.36;67.38;96144.47;5035055;28;20103;-82
2022/02/22 00:04:11;;;;;;;11.35;7.47;;;;;;;12.24;67.67;96137.53;5034651;28;20404;-81
2022/02/22 00:06:36;;;;;;;18.67;10.45;;;;;;;12.34;67.45;96159.84;5085213;28;20056;-82
2022/02/22 00:09:02;;;;;;;18.88;9.95;;;;;;;12.37;67.75;96164.94;5067633;28;20068;-82
2022/02/22 00:11:28;;;;;;;18.40;9.00;;;;;;;12.36;67.99;96159.72;5034420;28;20024;-82
2022/02/22 00:13:54;;;;;;;17.17;10.73;;;;;;;12.21;68.14;96151.22;5051418;28;20031;-82
2022/02/22 00:16:20;;;;;;;19.02;10.50;;;;;;;12.25;68.24;96167.88;5067616;28;20044;-83
2022/02/22 00:18:45;;;;;;;14.65;8.60;;;;;;;12.29;68.34;96158.56;5034707;28;20539;-83
2022/02/22 00:21:14;;;;;;;19.05;11.60;;;;;;;12.22;68.53;96158.28;5034654;28;20511;-83
2022/02/22 00:23:40;;;;;;;20.25;11.13;;;;;;;12.21;69.00;96156.56;5067268;28;20040;-82
2022/02/22 00:26:05;;;;;;;20.40;11.02;;;;;;;12.16;68.95;96148.13;5067945;28;20405;-83
2022/02/22 00:28:32;;;;;;;16.50;10.10;;;;;;;12.21;69.09;96151.22;5068497;28;20455;-82
2022/02/22 00:30:57;;;;;;;17.17;10.35;;;;;;;12.20;69.09;96160.25;5054042;28;20016;-83
2022/02/22 00:33:23;;;;;;;21.48;9.90;;;;;;;12.16;69.41;96152.63;5069054;28;20030;-82
2022/02/22 00:35:49;;;;;;;18.00;10.55;;;;;;;12.20;69.25;96157.59;5050846;28;20457;-83
2022/02/22 00:38:15;;;;;;;16.17;9.57;;;;;;;12.09;69.69;96152.31;5034485;28;20479;-83
2022/02/22 00:40:40;;;;;;;21.52;11.32;;;;;;;12.10;69.79;96153.19;5067121;28;20128;-83
2022/02/22 00:43:06;;;;;;;20.77;10.88;;;;;;;12.10;70.10;96162.06;5084384;28;20029;-82
2022/02/22 00:45:32;;;;;;;17.92;9.75;;;;;;;12.06;69.93;96146.44;5067220;28;20064;-81
2022/02/22 00:47:58;;;;;;;16.08;9.43;;;;;;;12.06;70.10;96152.59;5068424;28;20031;-82
2022/02/22 00:50:23;;;;;;;17.42;9.52;;;;;;;12.01;70.37;96154.00;5067918;28;20028;-84
2022/02/22 00:52:49;;;;;;;14.27;9.02;;;;;;;12.04;70.42;96149.22;5067460;28;20459;-82
2022/02/22 00:55:15;;;;;;;20.88;9.82;;;;;;;12.08;70.08;96149.81;5034068;28;20551;-82
2022/02/22 00:57:42;;;;;;;18.10;10.50;;;;;;;12.18;69.96;96148.81;5066969;28;20029;-81
2022/02/22 01:00:08;;;;;;;14.05;9.00;;;;;;;12.22;69.78;96150.25;5034187;28;20036;-82
2022/02/22 01:02:34;;;;;;;15.38;9.10;;;;;;;12.28;69.23;96141.63;5033826;28;20050;-82
2022/02/22 01:04:59;;;;;;;16.02;8.52;;;;;;;12.33;68.71;96138.56;5067095;28;20028;-82
2022/02/22 01:07:25;;;;;;;15.65;8.38;;;;;;;12.37;68.60;96139.94;5066927;28;20036;-81
2022/02/22 01:09:51;;;;;;;16.08;9.48;;;;;;;12.36;68.51;96143.63;5033451;28;20365;-80
2022/02/22 01:12:17;;;;;;;21.30;9.77;;;;;;;12.38;68.38;96145.19;5067102;28;20029;-82
2022/02/22 01:14:44;;;;;;;17.95;9.25;;;;;;;12.47;68.21;96147.03;5033455;28;20112;-82
2022/02/22 01:17:10;;;;;;;13.13;7.18;;;;;;;12.55;67.62;96145.47;5034365;28;20044;-82
2022/02/22 01:19:36;;;;;;;16.27;8.70;;;;;;;12.60;67.25;96140.53;5066601;28;20032;-82
2022/02/22 01:22:02;;;;;;;17.33;9.27;;;;;;;12.70;66.70;96144.06;5034321;28;20051;-83
2022/02/22 01:24:28;;;;;;;15.65;8.40;;;;;;;12.73;66.49;96146.44;5050604;28;20509;-82
2022/02/22 01:26:53;;;;;;;15.35;8.57;;;;;;;12.74;66.38;96138.25;5069949;28;20031;-83
2022/02/22 01:29:19;;;;;;;14.23;8.27;;;;;;;12.76;66.24;96146.16;5066551;28;20035;-83
2022/02/22 01:31:45;;;;;;;19.38;8.57;;;;;;;12.83;66.24;96148.13;5033600;28;20124;-82
2022/02/22 01:34:10;;;;;;;15.82;8.13;;;;;;;12.81;65.73;96127.78;5050310;28;20456;-82
2022/02/22 01:36:36;;;;;;;17.08;8.65;;;;;;;12.89;65.55;96146.69;5066554;28;20044;-82
2022/02/22 01:39:03;;;;;;;15.70;8.52;;;;;;;12.92;65.41;96146.44;5050410;28;20029;-82
2022/02/22 01:41:29;;;;;;;12.80;7.43;;;;;;;12.86;65.26;96136.25;5033299;28;20092;-82
2022/02/22 01:43:55;;;;;;;15.95;9.27;;;;;;;12.96;65.26;96147.81;5070495;28;20091;-82
2022/02/22 01:46:20;;;;;;;11.38;6.80;;;;;;;12.88;64.93;96121.72;5037702;28;20040;-82
2022/02/22 01:48:46;;;;;;;14.65;8.73;;;;;;;12.98;65.27;96141.31;5074016;28;20028;-82
2022/02/22 01:51:12;;;;;;;16.95;9.15;;;;;;;12.90;65.44;96124.25;5037456;28;20459;-82
2022/02/22 01:53:39;;;;;;;14.88;8.70;;;;;;;12.89;65.68;96138.63;5070835;28;20495;-82
2022/02/22 01:56:07;;;;;;;16.13;9.98;;;;;;;12.90;65.64;96135.81;5037805;28;20120;-82
2022/02/22 01:58:33;;;;;;;18.90;9.80;;;;;;;12.83;65.70;96126.66;5037630;28;20033;-82
2022/02/22 02:00:59;;;;;;;16.80;9.15;;;;;;;12.87;65.60;96135.25;5037557;28;20025;-82
2022/02/22 02:03:26;;;;;;;17.05;8.52;;;;;;;12.83;65.69;96132.00;5087082;28;20025;-81
2022/02/22 02:05:52;;;;;;;15.45;8.68;;;;;;;12.85;65.82;96130.06;5069862;28;20029;-81
2022/02/22 02:08:18;;;;;;;14.85;8.82;;;;;;;12.85;65.65;96129.22;5037105;28;20025;-81
2022/02/22 02:10:43;;;;;;;17.42;9.30;;;;;;;12.79;65.80;96124.41;5053556;28;20028;-82
2022/02/22 02:13:09;;;;;;;16.45;9.20;;;;;;;12.85;65.90;96135.41;5087059;28;20135;-82
2022/02/22 02:15:34;;;;;;;14.18;9.10;;;;;;;12.84;65.89;96132.88;5070043;28;20036;-82
2022/02/22 02:18:00;;;;;;;15.73;9.40;;;;;;;12.84;65.98;96140.91;5071487;28;20045;-82
2022/02/22 02:20:25;;;;;;;16.20;9.40;;;;;;;12.80;65.88;96131.44;5036175;28;20044;-83
2022/02/22 02:22:51;;;;;;;18.10;10.27;;;;;;;12.83;66.48;96133.84;5035972;28;20028;-82
2022/02/22 02:25:26;;;;;;;19.38;10.60;;;;;;;12.87;68.23;96146.00;5068997;28;20043;-82
2022/02/22 02:27:51;;;;;;;16.83;11.05;;;;;;;12.72;70.56;96158.16;5035614;28;20120;-84
2022/02/22 02:30:17;;;;;;;19.25;10.70;;;;;;;12.29;73.38;96143.34;5036182;28;20113;-83
2022/02/22 02:32:53;;;;;;;23.20;10.93;;;;;;;12.12;75.05;96152.06;5052693;28;20028;-82
2022/02/22 02:35:19;;;;;;;19.73;11.75;;;;;;;11.69;77.51;96143.47;5069060;28;20587;-82
2022/02/22 02:37:44;;;;;;;24.00;11.27;;;;;;;11.38;80.29;96145.34;5068739;28;20025;-82
2022/02/22 02:40:10;;;;;;;18.80;11.10;;;;;;;11.32;82.36;96146.69;5068655;28;20055;-84
2022/02/22 02:42:43;;;;;;;20.15;10.85;;;;;;;11.21;83.28;96145.94;5068675;28;20021;-83
2022/02/22 02:45:10;;;;;;;16.67;10.73;;;;;;;11.15;85.52;96144.66;5052087;28;20029;-85
2022/02/22 02:47:36;;;;;;;22.67;11.90;;;;;;;11.11;86.62;96147.72;5068916;28;20483;-84
2022/02/22 02:50:10;;;;;;;25.05;11.77;;;;;;;11.10;87.15;96152.25;5035227;28;20037;-83
2022/02/22 02:52:35;;;;;;;24.35;11.98;;;;;;;10.97;89.43;96162.28;5084671;28;20024;-82
2022/02/22 02:55:02;;;;;;;21.90;11.63;;;;;;;10.94;90.76;96151.00;5085706;28;20087;-83
2022/02/22 02:57:27;;;;;;;24.55;12.75;;;;;;;11.01;90.07;96163.75;5051780;28;20052;-83
2022/02/22 02:59:53;;;;;;;27.55;13.70;;;;;;;10.98;89.09;96158.66;5035471;28;20056;-83
2022/02/22 03:02:19;;;;;;;21.90;12.35;;;;;;;11.08;90.20;96159.53;5068734;28;20104;-82
2022/02/22 03:04:44;;;;;;;20.90;12.88;;;;;;;11.11;87.41;96169.13;5084995;28;20191;-83
2022/02/22 03:07:10;;;;;;;22.23;13.55;;;;;;;11.17;89.04;96177.47;5035322;28;20514;-83
2022/02/22 03:09:36;;;;;;;18.67;12.25;;;;;;;11.24;87.00;96175.13;5068556;28;20033;-83
2022/02/22 03:12:01;;;;;;;20.00;13.25;;;;;;;11.24;86.49;96170.63;5068728;28;20104;-83
2022/02/22 03:14:27;;;;;;;19.65;11.63;;;;;;;11.19;88.87;96182.72;5069150;28;20024;-83
2022/02/22 03:16:52;;;;;;;24.33;14.20;;;;;;;11.21;88.74;96196.78;5024116;28;1272148;-83
2022/02/22 03:19:18;;;;;;;25.92;13.10;;;;;;;11.14;87.71;96191.13;5069430;28;20037;-83
2022/02/22 03:21:44;;;;;;;20.88;11.25;;;;;;;11.12;85.85;96185.06;5035505;28;20039;-84
2022/02/22 03:24:09;;;;;;;20.40;11.57;;;;;;;11.16;85.43;96197.22;5069872;28;20493;-83
2022/02/22 03:26:35;;;;;;;19.42;11.10;;;;;;;11.22;85.32;96195.81;5069081;28;20025;-83
2022/02/22 03:29:01;;;;;;;19.48;11.13;;;;;;;11.22;85.25;96188.66;5069299;28;20036;-83
2022/02/22 03:31:30;;;;;;;17.98;11.85;;;;;;;11.27;86.86;96181.06;5069353;28;20025;-83
2022/02/22 03:33:57;;;;;;;19.90;11.82;;;;;;;11.26;87.70;96179.34;5069502;28;20062;-83
2022/02/22 03:36:23;;;;;;;21.55;11.70;;;;;;;11.30;88.45;96180.78;5036448;28;20028;-83
2022/02/22 03:38:49;;;;;;;20.70;13.00;;;;;;;11.21;88.35;96181.59;5036109;28;20036;-83
2022/02/22 03:41:15;;;;;;;20.88;12.05;;;;;;;11.28;87.58;96193.47;5035844;28;20484;-83
2022/02/22 03:43:41;;;;;;;21.58;13.32;;;;;;;11.26;87.53;96200.75;5068691;28;20024;-83
2022/02/22 03:46:07;;;;;;;24.45;14.43;;;;;;;11.16;89.46;96193.69;5068939;28;20029;-83
2022/02/22 03:48:32;;;;;;;22.48;14.07;;;;;;;11.20;89.50;96189.72;5068498;28;20334;-84
2022/02/22 03:50:58;;;;;;;25.00;14.35;;;;;;;11.29;88.87;96207.66;5071815;28;20064;-83
2022/02/22 03:53:23;;;;;;;24.35;14.00;;;;;;;11.24;89.78;96192.03;5072216;28;20039;-85
2022/02/22 03:55:49;;;;;;;22.13;14.07;;;;;;;11.22;93.02;96194.00;5051488;28;20086;-82
2022/02/22 03:58:15;;;;;;;20.50;13.45;;;;;;;11.36;91.52;96204.34;5051714;28;20036;-82
2022/02/22 04:00:41;;;;;;;21.70;13.70;;;;;;;11.28;91.05;96197.97;5051484;28;20063;-82
2022/02/22 04:03:09;;;;;;;34.85;18.92;;;;;;;11.24;93.32;96209.91;5068247;28;20381;-82
2022/02/22 04:05:35;;;;;;;69.78;29.58;;;;;;;11.08;95.23;96196.13;5034285;28;20040;-83
2022/02/22 04:08:01;;;;;;;46.20;20.73;;;;;;;11.10;93.80;96192.38;5055731;28;20075;-83
2022/02/22 04:10:27;;;;;;;97.35;35.97;;;;;;;11.16;94.15;96202.56;5068340;28;20187;-84
2022/02/22 04:12:52;;;;;;;55.83;22.98;;;;;;;11.15;93.30;96200.84;5034849;28;20035;-82
2022/02/22 04:15:18;;;;;;;27.42;15.35;;;;;;;11.09;92.18;96204.06;5067987;28;20408;-83
2022/02/22 04:17:43;;;;;;;27.20;14.07;;;;;;;11.11;93.13;96202.09;5051396;28;20203;-83
2022/02/22 04:20:10;;;;;;;22.10;11.23;;;;;;;11.14;92.60;96217.88;5068082;28;20504;-83
2022/02/22 04:22:36;;;;;;;29.75;10.43;;;;;;;11.20;90.84;96221.84;5067491;28;20527;-73
2022/02/22 04:25:03;;;;;;;24.65;10.73;;;;;;;11.18;92.30;96232.69;5051377;28;20029;-84
2022/02/22 04:27:29;;;;;;;14.35;8.50;;;;;;;11.01;92.31;96205.69;5034984;28;20055;-87
2022/02/22 04:30:00;;;;;;;23.40;10.68;;;;;;;11.12;91.66;96227.03;5068462;28;20060;-79
2022/02/22 04:32:25;;;;;;;17.52;10.23;;;;;;;11.02;92.76;96218.91;5068204;28;20029;-82
2022/02/22 04:34:51;;;;;;;17.58;10.30;;;;;;;10.98;92.79;96220.19;5034526;28;20021;-82
2022/02/22 04:37:17;;;;;;;18.05;10.60;;;;;;;11.01;94.00;96225.28;5084701;28;20025;-81
2022/02/22 04:39:44;;;;;;;21.30;11.05;;;;;;;10.80;95.23;96219.03;5051386;28;20040;-82
2022/02/22 04:42:09;;;;;;;18.67;10.60;;;;;;;10.85;94.82;96230.22;5050731;28;20032;-76
2022/02/22 04:44:35;;;;;;;19.92;10.95;;;;;;;10.75;95.01;96215.91;5065057;28;20045;-84
2022/02/22 04:47:01;;;;;;;17.75;10.05;;;;;;;10.65;95.53;96228.34;5033973;28;20033;-84
2022/02/22 04:49:26;;;;;;;15.77;9.50;;;;;;;10.60;94.02;96228.75;5035118;28;20063;-82
2022/02/22 04:51:52;;;;;;;20.85;11.25;;;;;;;10.61;94.42;96245.63;5084528;28;20091;-84
2022/02/22 04:54:17;;;;;;;17.55;10.55;;;;;;;10.58;95.11;96245.91;5067350;28;20362;-83
2022/02/22 04:56:43;;;;;;;16.73;10.25;;;;;;;10.56;95.25;96254.03;5067222;28;20040;-85
2022/02/22 04:59:08;;;;;;;20.02;11.80;;;;;;;10.34;95.78;96252.25;5067653;28;20449;-84
2022/02/22 05:01:34;;;;;;;18.85;11.55;;;;;;;10.23;97.87;96268.34;5034865;28;20492;-85
2022/02/22 05:04:00;;;;;;;19.25;11.15;;;;;;;10.15;98.68;96262.75;5068152;28;20025;-85
2022/02/22 05:06:25;;;;;;;21.95;10.93;;;;;;;10.24;99.35;96262.00;5035175;28;20041;-85
2022/02/22 05:08:51;;;;;;;17.35;10.18;;;;;;;10.36;98.33;96272.69;5030785;28;20021;-84
2022/02/22 05:11:25;;;;;;;16.23;10.65;;;;;;;10.28;98.49;96271.47;5014969;28;20025;-84
2022/02/22 05:13:50;;;;;;;24.90;10.35;;;;;;;10.19;98.96;96272.22;5033571;28;20033;-85
2022/02/22 05:16:16;;;;;;;16.27;9.57;;;;;;;10.19;98.58;96274.88;5067395;28;20024;-84
2022/02/22 05:18:42;;;;;;;18.77;10.25;;;;;;;10.27;98.49;96291.13;5038698;28;20092;-84
2022/02/22 05:21:08;;;;;;;17.10;9.60;;;;;;;10.29;97.33;96283.88;5030803;28;20069;-85
2022/02/22 05:23:35;;;;;;;16.30;9.60;;;;;;;10.11;98.36;96285.31;4997796;28;20034;-83
2022/02/22 05:26:03;;;;;;;21.02;11.65;;;;;;;10.00;100.00;96282.66;5000842;28;20509;-84
2022/02/22 05:28:29;;;;;;;27.92;12.35;;;;;;;10.04;100.00;96292.13;4998798;28;20161;-85
2022/02/22 05:30:55;;;;;;;23.52;13.52;;;;;;;10.11;100.00;96289.81;4996355;28;20510;-83
2022/02/22 05:33:22;;;;;;;20.88;12.43;;;;;;;10.21;100.00;96307.66;5029929;28;20379;-83
2022/02/22 05:35:49;;;;;;;26.27;13.60;;;;;;;10.04;100.00;96289.44;5028833;28;20024;-84
2022/02/22 05:38:14;;;;;;;21.67;11.45;;;;;;;10.22;100.00;96313.88;4997119;28;20028;-83
2022/02/22 05:40:40;;;;;;;23.13;10.77;;;;;;;10.11;100.00;96314.72;4997671;28;20454;-82
2022/02/22 05:43:06;;;;;;;20.27;11.13;;;;;;;10.11;100.00;96316.53;4997552;28;20037;-82
2022/02/22 05:45:31;;;;;;;19.35;10.07;;;;;;;10.04;100.00;96310.81;5030043;28;20034;-84
2022/02/22 05:47:57;;;;;;;22.10;10.13;;;;;;;10.17;100.00;96324.94;4997231;28;20052;-84
2022/02/22 05:50:23;;;;;;;23.98;12.73;;;;;;;10.22;100.00;96335.25;4997017;28;20122;-79
2022/02/22 05:52:48;;;;;;;27.30;17.42;;;;;;;10.26;100.00;96334.91;5014706;28;20029;-84
2022/02/22 05:55:14;;;;;;;34.78;17.42;;;;;;;10.26;99.55;96332.22;5014048;28;20105;-82
2022/02/22 05:57:40;;;;;;;35.03;18.30;;;;;;;10.20;100.00;96337.19;4996835;28;20497;-82
2022/02/22 06:00:09;;;;;;;39.67;19.98;;;;;;;10.28;100.00;96351.66;5029682;28;20499;-81
2022/02/22 06:02:35;;;;;;;41.28;20.05;;;;;;;10.23;100.00;96345.81;4997206;28;20117;-81
2022/02/22 06:05:00;;;;;;;30.63;17.38;;;;;;;10.32;100.00;96342.41;5014921;28;20061;-81
2022/02/22 06:07:26;;;;;;;34.13;16.58;;;;;;;10.28;100.00;96337.44;4996447;28;20040;-82
2022/02/22 06:09:51;;;;;;;35.78;19.15;;;;;;;10.20;100.00;96339.88;4996851;28;20056;-82
2022/02/22 06:12:17;;;;;;;35.83;19.83;;;;;;;10.10;100.00;96344.22;4996578;28;20044;-82
2022/02/22 06:14:43;;;;;;;34.03;20.27;;;;;;;10.01;100.00;96351.13;5013186;28;20040;-82
2022/02/22 06:17:08;;;;;;;41.83;21.92;;;;;;;9.93;100.00;96366.06;5003593;28;20110;-82
2022/02/22 06:19:34;;;;;;;32.85;17.73;;;;;;;9.82;100.00;96373.09;5049518;28;20079;-82
2022/02/22 06:21:59;;;;;;;32.22;18.10;;;;;;;9.87;100.00;96375.41;5016461;28;20071;-82
2022/02/22 06:24:25;;;;;;;86.32;37.13;;;;;;;9.85;100.00;96374.66;5049229;28;20040;-81
2022/02/22 06:26:50;;;;;;;49.60;21.60;;;;;;;9.76;100.00;96362.03;5049326;28;20036;-82
2022/02/22 06:29:16;;;;;;;40.10;19.27;;;;;;;9.94;100.00;96370.41;5051741;28;20029;-82
2022/02/22 06:31:42;;;;;;;48.17;22.42;;;;;;;9.89;100.00;96368.13;5036576;28;20499;-82
2022/02/22 06:34:07;;;;;;;44.17;22.45;;;;;;;9.98;100.00;96386.09;5036005;28;20389;-83
2022/02/22 06:36:33;;;;;;;41.63;23.15;;;;;;;9.94;100.00;96381.97;5052584;28;20025;-82
2022/02/22 06:39:00;;;;;;;59.40;34.05;;;;;;;9.89;100.00;96386.81;5036238;28;20060;-84
2022/02/22 06:41:26;;;;;;;37.58;18.90;;;;;;;9.97;100.00;96381.72;5052890;28;20083;-83
2022/02/22 06:43:51;;;;;;;40.20;20.85;;;;;;;9.98;100.00;96380.75;5054043;28;20024;-84
2022/02/22 06:46:17;;;;;;;33.28;17.48;;;;;;;9.98;100.00;96382.56;5069790;28;20090;-82
2022/02/22 06:48:42;;;;;;;28.67;16.67;;;;;;;10.05;100.00;96406.03;5052660;28;20033;-83
2022/02/22 06:51:08;;;;;;;32.10;17.25;;;;;;;9.96;100.00;96411.22;5019537;28;20033;-82
2022/02/22 06:53:34;;;;;;;28.13;16.13;;;;;;;9.74;100.00;96409.38;5068708;28;20176;-81
2022/02/22 06:56:00;;;;;;;26.70;15.57;;;;;;;9.69;100.00;96385.69;5052007;28;20025;-82
2022/02/22 06:58:25;;;;;;;37.55;21.98;;;;;;;9.89;100.00;96415.34;5019433;28;20083;-82
2022/02/22 07:00:51;;;;;;;27.40;15.98;;;;;;;9.92;100.00;96413.28;5053501;28;20036;-82
2022/02/22 07:03:17;;;;;;;27.02;15.43;;;;;;;9.92;100.00;96407.94;5052568;28;20116;-81
2022/02/22 07:05:43;;;;;;;41.90;21.38;;;;;;;9.72;100.00;96404.13;5052262;28;20067;-82
2022/02/22 07:08:08;;;;;;;36.13;20.95;;;;;;;9.52;100.00;96412.81;5069075;28;20067;-82
2022/02/22 07:10:34;;;;;;;30.35;17.02;;;;;;;9.29;100.00;96391.53;5018996;28;20132;-81
2022/02/22 07:13:00;;;;;;;31.40;15.38;;;;;;;9.28;100.00;96385.34;5052450;28;20052;-81
2022/02/22 07:15:25;;;;;;;31.08;17.45;;;;;;;9.35;100.00;96393.72;5035563;28;20033;-81
2022/02/22 07:17:53;;;;;;;30.65;17.55;;;;;;;9.44;100.00;96385.88;5052007;28;20045;-82
2022/02/22 07:20:21;;;;;;;37.85;19.10;;;;;;;9.60;100.00;96398.88;5052090;28;20031;-81
2022/02/22 07:22:48;;;;;;;29.63;16.65;;;;;;;9.59;100.00;96394.53;5018581;28;20029;-82
2022/02/22 07:25:15;;;;;;;34.80;16.92;;;;;;;9.68;100.00;96405.34;5051487;28;20037;-82
2022/02/22 07:27:44;;;;;;;27.50;16.38;;;;;;;9.73;100.00;96408.50;5018392;28;20064;-81
2022/02/22 07:30:12;;;;;;;31.58;16.88;;;;;;;9.77;100.00;96407.31;5019006;28;20481;-82
2022/02/22 07:32:37;;;;;;;43.70;22.55;;;;;;;9.89;100.00;96408.19;5051565;28;20116;-83
2022/02/22 07:35:04;;;;;;;34.25;18.00;;;;;;;10.08;100.00;96411.13;5036987;28;20052;-84
2022/02/22 07:37:31;;;;;;;30.38;16.27;;;;;;;10.13;100.00;96400.06;5034986;28;20033;-83
2022/02/22 07:39:57;;;;;;;28.58;15.57;;;;;;;10.17;100.00;96413.13;5017385;28;20020;-81
2022/02/22 07:42:23;;;;;;;32.63;16.73;;;;;;;10.24;100.00;96413.50;5051797;28;20040;-82
2022/02/22 07:44:49;;;;;;;30.75;16.88;;;;;;;10.32;100.00;96416.41;5034755;28;20094;-82
2022/02/22 07:47:14;;;;;;;26.65;15.05;;;;;;;10.21;100.00;96409.22;5051726;28;20087;-82
2022/02/22 07:49:40;;;;;;;31.85;16.45;;;;;;;10.18;100.00;96408.63;5018778;28;20033;-82
2022/02/22 07:52:06;;;;;;;28.67;16.98;;;;;;;10.31;100.00;96414.69;5051317;28;20129;-82
2022/02/22 07:54:31;;;;;;;27.98;15.65;;;;;;;10.47;100.00;96417.84;5051556;28;20036;-83
2022/02/22 07:56:57;;;;;;;30.77;17.75;;;;;;;10.69;100.00;96416.97;5050723;28;20041;-81
2022/02/22 07:59:23;;;;;;;41.05;23.27;;;;;;;10.75;100.00;96416.50;5034578;28;20485;-81
2022/02/22 08:01:50;;;;;;;34.53;20.42;;;;;;;10.94;100.00;96426.53;5017711;28;20039;-83
2022/02/22 08:04:16;;;;;;;35.20;20.08;;;;;;;11.14;100.00;96415.06;5018329;28;20163;-82
2022/02/22 08:06:41;;;;;;;24.20;14.43;;;;;;;11.14;99.25;96423.94;5050818;28;20036;-83
2022/02/22 08:09:07;;;;;;;27.95;15.30;;;;;;;11.27;96.21;96426.47;5050742;28;20033;-82
2022/02/22 08:11:33;;;;;;;27.13;16.08;;;;;;;11.19;98.46;96429.78;5034544;28;20028;-83
2022/02/22 08:14:02;;;;;;;41.28;25.65;;;;;;;11.34;99.61;96444.56;5018348;28;20037;-83
2022/02/22 08:16:28;;;;;;;45.45;25.95;;;;;;;11.31;100.00;96436.78;5018769;28;20025;-84
2022/02/22 08:18:55;;;;;;;47.33;27.35;;;;;;;11.17;100.00;96439.75;5017911;28;20033;-83
2022/02/22 08:21:21;;;;;;;40.40;23.88;;;;;;;11.18;100.00;96438.78;5018366;28;20068;-82
2022/02/22 08:23:47;;;;;;;39.80;22.75;;;;;;;11.12;100.00;96438.44;5050473;28;20033;-84
2022/02/22 08:26:13;;;;;;;33.72;20.48;;;;;;;11.01;100.00;96442.00;5017981;28;20502;-82
2022/02/22 08:28:38;;;;;;;32.97;19.30;;;;;;;10.89;100.00;96434.94;5034513;28;20025;-84
2022/02/22 08:31:04;;;;;;;29.73;16.95;;;;;;;10.87;100.00;96437.75;5017483;28;20036;-83
2022/02/22 08:33:29;;;;;;;31.98;17.58;;;;;;;10.56;100.00;96448.34;5050864;28;20064;-83
2022/02/22 08:35:56;;;;;;;20.17;12.32;;;;;;;10.46;100.00;96452.75;5017848;28;20029;-83
2022/02/22 08:38:21;;;;;;;27.52;12.65;;;;;;;10.32;100.00;96454.66;5034535;28;20032;-83
2022/02/22 08:40:49;;;;;;;34.95;19.88;;;;;;;10.11;100.00;96455.44;5050758;28;20031;-83
2022/02/22 08:43:15;;;;;;;19.23;12.15;;;;;;;10.00;100.00;96455.41;5067307;28;20385;-82
2022/02/22 08:45:41;;;;;;;24.23;15.35;;;;;;;10.04;100.00;96471.09;5017388;28;20029;-82
2022/02/22 08:48:07;;;;;;;17.25;10.65;;;;;;;9.98;100.00;96471.56;5050298;28;20037;-83
2022/02/22 08:50:32;;;;;;;18.73;11.32;;;;;;;9.82;100.00;96468.38;5033835;28;20045;-82
2022/02/22 08:52:58;;;;;;;18.88;10.30;;;;;;;9.75;100.00;96464.47;5049966;28;20220;-83
2022/02/22 08:55:26;;;;;;;12.57;7.63;;;;;;;9.75;100.00;96467.97;5017608;28;20120;-83
2022/02/22 08:57:52;;;;;;;14.20;8.07;;;;;;;9.74;100.00;96473.44;5049999;28;20040;-83
2022/02/22 09:00:18;;;;;;;13.73;8.35;;;;;;;9.78;100.00;96489.09;5050044;28;20029;-83
2022/02/22 09:02:44;;;;;;;15.15;9.77;;;;;;;9.74;100.00;96495.66;5066677;28;20108;-82
2022/02/22 09:05:10;;;;;;;18.55;11.18;;;;;;;9.75;100.00;96499.19;5017148;28;20056;-83
2022/02/22 09:07:36;;;;;;;17.80;9.05;;;;;;;9.72;100.00;96497.59;5067166;28;20466;-83
2022/02/22 09:10:04;;;;;;;18.60;10.25;;;;;;;9.68;100.00;96495.28;5050019;28;20064;-83
2022/02/22 09:12:32;;;;;;;43.55;20.63;;;;;;;9.62;100.00;96507.28;5050213;28;20409;-83
2022/02/22 09:14:57;;;;;;;24.70;12.70;;;;;;;9.68;100.00;96513.97;5049682;28;20480;-83
2022/02/22 09:17:23;;;;;;;23.33;12.77;;;;;;;9.66;100.00;96513.22;5012602;28;20046;-82
2022/02/22 09:19:48;;;;;;;24.60;14.32;;;;;;;9.58;100.00;96521.81;5004733;28;20382;-83
2022/02/22 09:22:14;;;;;;;16.88;10.02;;;;;;;9.53;100.00;96523.97;4997056;28;20425;-84
2022/02/22 09:24:39;;;;;;;20.73;11.02;;;;;;;9.49;100.00;96516.28;5012547;28;20029;-82
2022/02/22 09:27:05;;;;;;;18.25;11.55;;;;;;;9.44;100.00;96529.13;5031999;28;20049;-83
2022/02/22 09:29:30;;;;;;;17.65;10.82;;;;;;;9.44;100.00;96537.16;4998571;28;20034;-82
2022/02/22 09:31:56;;;;;;;28.45;15.45;;;;;;;9.40;100.00;96528.50;4998648;28;20107;-82
2022/02/22 09:34:22;;;;;;;23.20;13.90;;;;;;;9.27;100.00;96523.22;5045643;28;20026;-83
2022/02/22 09:36:48;;;;;;;18.45;11.32;;;;;;;9.32;100.00;96546.06;5032634;28;20040;-83
2022/02/22 09:39:14;;;;;;;20.33;10.60;;;;;;;9.13;100.00;96550.06;5044543;28;20056;-83
2022/02/22 09:41:40;;;;;;;18.35;11.18;;;;;;;9.04;100.00;96556.06;5036594;28;20474;-82
2022/02/22 09:44:06;;;;;;;22.25;13.77;;;;;;;8.83;100.00;96557.56;4998168;28;20038;-83
2022/02/22 09:46:32;;;;;;;23.88;13.93;;;;;;;8.83;100.00;96562.06;5037307;28;20022;-83
2022/02/22 09:48:58;;;;;;;25.27;13.95;;;;;;;8.48;100.00;96561.88;5024984;28;20025;-83
2022/02/22 09:51:24;;;;;;;24.23;11.80;;;;;;;8.28;100.00;96567.69;5038152;28;20036;-83
2022/02/22 09:53:49;;;;;;;15.18;8.23;;;;;;;8.09;100.00;96573.41;5037913;28;20018;-82
2022/02/22 09:56:15;;;;;;;13.68;7.25;;;;;;;7.85;100.00;96562.59;4997665;28;20393;-82
2022/02/22 09:58:41;;;;;;;10.38;6.05;;;;;;;7.61;100.00;96577.53;5039991;28;20029;-81
2022/02/22 10:01:07;;;;;;;16.75;9.38;;;;;;;7.46;100.00;96589.19;5035238;28;20035;-83
2022/02/22 10:03:32;;;;;;;11.77;6.45;;;;;;;7.43;100.00;96581.41;5021027;28;20485;-82
2022/02/22 10:06:00;;;;;;;24.90;11.43;;;;;;;7.45;100.00;96587.47;5000525;28;20037;-83
2022/02/22 10:08:35;;;;;;;18.92;9.57;;;;;;;7.43;100.00;96589.38;5002393;28;20420;-83
2022/02/22 10:11:02;;;;;;;15.48;7.60;;;;;;;7.45;100.00;96588.31;5025762;28;20112;-82
2022/02/22 10:13:29;;;;;;;18.45;8.63;;;;;;;7.39;100.00;96595.84;5008531;28;20516;-83
2022/02/22 10:15:54;;;;;;;12.85;7.60;;;;;;;7.38;100.00;96594.16;5020678;28;20171;-81
2022/02/22 10:18:20;;;;;;;50.63;24.63;;;;;;;7.33;100.00;96588.25;5057545;28;20064;-81
2022/02/22 10:20:48;;;;;;;12.82;7.95;;;;;;;7.41;100.00;96605.41;5058895;28;20037;-84
2022/02/22 10:23:13;;;;;;;17.63;8.98;;;;;;;7.30;100.00;96612.38;5059737;28;20442;-84
2022/02/22 10:25:39;;;;;;;19.95;9.18;;;;;;;7.33;100.00;96629.00;5058783;28;20028;-85
2022/02/22 10:28:06;;;;;;;14.48;7.00;;;;;;;7.31;100.00;96616.75;5055459;28;20087;-82
2022/02/22 10:30:40;;;;;;;16.30;8.77;;;;;;;7.16;100.00;96604.44;5021518;28;20469;-82
2022/02/22 10:33:17;;;;;;;17.05;6.30;;;;;;;7.17;100.00;96614.16;5021818;28;20021;-83
2022/02/22 10:35:46;;;;;;;5.65;3.85;;;;;;;6.97;100.00;96613.59;5061224;28;20031;-82
2022/02/22 10:38:20;;;;;;;6.65;4.00;;;;;;;7.01;100.00;96615.09;5024341;28;20106;-83
2022/02/22 10:41:01;;;;;;;6.82;3.45;;;;;;;7.13;100.00;96618.78;5061318;28;20132;-83
2022/02/22 10:43:30;;;;;;;5.35;3.20;;;;;;;7.07;100.00;96598.75;5053428;28;20029;-83
2022/02/22 10:46:01;;;;;;;5.07;3.80;;;;;;;7.11;100.00;96610.03;5023868;28;20496;-83
2022/02/22 10:48:40;;;;;;;6.20;3.95;;;;;;;7.42;97.88;96624.91;5036569;28;20028;-83
2022/02/22 10:51:11;;;;;;;12.60;6.30;;;;;;;7.61;97.32;96623.63;5069535;28;20052;-82
2022/02/22 10:53:43;;;;;;;7.50;3.65;;;;;;;7.63;91.03;96635.00;5027893;28;20495;-83
2022/02/22 10:56:11;;;;;;;11.25;6.57;;;;;;;7.71;93.97;96629.19;5020083;28;20116;-82
2022/02/22 10:58:40;;;;;;;10.85;6.03;;;;;;;7.74;94.17;96623.69;5019915;28;20036;-82
2022/02/22 11:01:13;;;;;;;26.52;14.23;;;;;;;7.76;92.75;96629.75;5023347;28;20039;-82
2022/02/22 11:03:41;;;;;;;7.70;3.90;;;;;;;7.61;90.75;96620.09;5027979;28;20040;-82
2022/02/22 11:06:09;;;;;;;12.00;6.85;;;;;;;7.66;92.36;96625.97;5055879;28;20040;-82
2022/02/22 11:08:36;;;;;;;8.80;4.32;;;;;;;7.71;89.54;96626.53;5037034;28;20052;-81
2022/02/22 11:11:10;;;;;;;9.88;5.05;;;;;;;7.82;90.08;96631.16;5029306;28;20040;-83
2022/02/22 11:13:36;;;;;;;9.15;6.40;;;;;;;7.72;86.12;96628.22;5034365;28;20125;-83
2022/02/22 11:16:13;;;;;;;31.50;17.75;;;;;;;7.81;88.29;96630.31;5019209;28;20465;-81